createdAt,value
2018-04-27T00:00:24.436Z,99.90
2018-04-27T00:02:52.639Z,99.90
2018-04-27T00:05:20.803Z,99.90
2018-04-27T00:07:59.628Z,99.90
2018-04-27T00:10:27.801Z,99.90
2018-04-27T00:12:55.960Z,99.90
2018-04-27T00:15:24.112Z,99.90
2018-04-27T00:17:59.552Z,99.90
2018-04-27T00:20:28.469Z,99.90
2018-04-27T00:22:56.621Z,99.90
2018-04-27T00:25:25.521Z,99.90
2018-04-27T00:27:55.681Z,99.90
2018-04-27T00:30:23.816Z,99.90
2018-04-27T00:32:51.980Z,99.90
2018-04-27T00:35:20.116Z,99.90
2018-04-27T00:38:02.801Z,99.90
2018-04-27T00:40:30.965Z,99.90
2018-04-27T00:42:59.124Z,99.90
2018-04-27T00:45:27.281Z,99.90
2018-04-27T00:48:17.694Z,99.90
2018-04-27T00:50:53.331Z,99.90
2018-04-27T00:53:21.504Z,99.90
2018-04-27T00:55:49.693Z,99.90
2018-04-27T00:58:25.149Z,99.90
2018-04-27T01:00:53.407Z,99.90
2018-04-27T01:03:21.656Z,99.90
2018-04-27T01:05:50.640Z,99.90
2018-04-27T01:08:21.656Z,99.90
2018-04-27T01:10:49.852Z,99.90
2018-04-27T01:13:18.101Z,99.90
2018-04-27T01:15:46.297Z,99.90
2018-04-27T01:18:14.579Z,99.90
2018-04-27T01:20:42.746Z,99.90
2018-04-27T01:23:11.733Z,99.90
2018-04-27T01:25:39.953Z,99.90
2018-04-27T01:28:09.137Z,99.90
2018-04-27T01:30:37.376Z,99.90
2018-04-27T01:33:05.602Z,99.90
2018-04-27T01:35:33.747Z,99.90
2018-04-27T01:38:01.943Z,99.90
2018-04-27T01:40:30.118Z,99.90
2018-04-27T01:42:58.307Z,99.90
2018-04-27T01:45:26.457Z,99.90
2018-04-27T01:48:03.684Z,99.90
2018-04-27T01:50:31.841Z,99.90
2018-04-27T01:52:59.989Z,99.90
2018-04-27T01:55:28.964Z,99.90
2018-04-27T01:57:58.873Z,99.90
2018-04-27T02:00:27.923Z,99.90
2018-04-27T02:02:56.127Z,99.90
2018-04-27T02:05:24.367Z,99.90
2018-04-27T02:07:54.554Z,99.90
2018-04-27T02:10:23.523Z,99.90
2018-04-27T02:12:51.709Z,99.90
2018-04-27T02:15:20.689Z,99.90
2018-04-27T02:17:48.871Z,99.90
2018-04-27T02:20:17.866Z,99.90
2018-04-27T02:22:46.063Z,99.90
2018-04-27T02:25:14.269Z,99.90
2018-04-27T02:27:43.605Z,99.90
2018-04-27T02:30:11.809Z,99.90
2018-04-27T02:32:40.015Z,99.90
2018-04-27T02:35:08.253Z,99.90
2018-04-27T02:37:39.993Z,99.90
2018-04-27T02:40:08.939Z,99.90
2018-04-27T02:42:37.130Z,99.90
2018-04-27T02:45:05.393Z,99.90
2018-04-27T02:47:51.101Z,99.90
2018-04-27T02:50:19.307Z,99.90
2018-04-27T02:52:47.544Z,99.90
2018-04-27T02:55:15.696Z,99.90
2018-04-27T02:57:44.814Z,99.90
2018-04-27T03:00:12.968Z,99.90
2018-04-27T03:02:41.131Z,99.90
2018-04-27T03:05:09.303Z,99.90
2018-04-27T03:07:37.478Z,99.90
2018-04-27T03:10:05.661Z,99.90
2018-04-27T03:12:33.813Z,99.90
2018-04-27T03:15:01.977Z,99.90
2018-04-27T03:17:30.141Z,99.90
2018-04-27T03:19:59.053Z,99.90
2018-04-27T03:22:27.223Z,99.90
2018-04-27T03:24:55.401Z,99.90
2018-04-27T03:27:23.605Z,99.90
2018-04-27T03:29:51.782Z,99.90
2018-04-27T03:32:19.981Z,99.90
2018-04-27T03:34:48.165Z,99.90
2018-04-27T03:37:26.185Z,99.90
2018-04-27T03:39:54.434Z,99.90
2018-04-27T03:42:23.383Z,99.90
2018-04-27T03:44:51.564Z,99.90
2018-04-27T03:47:21.707Z,99.90
2018-04-27T03:49:49.957Z,99.90
2018-04-27T03:52:18.122Z,99.90
2018-04-27T03:54:47.324Z,99.90
2018-04-27T03:57:22.482Z,99.90
2018-04-27T04:00:08.492Z,99.90
2018-04-27T04:02:54.517Z,99.90
2018-04-27T04:05:32.998Z,99.90
2018-04-27T04:08:01.136Z,99.90
2018-04-27T04:10:29.314Z,99.90
2018-04-27T04:12:57.464Z,99.90
2018-04-27T04:15:25.628Z,99.90
2018-04-27T04:18:01.769Z,99.90
2018-04-27T04:20:30.796Z,99.90
2018-04-27T04:22:59.043Z,99.90
2018-04-27T04:25:28.069Z,99.90
2018-04-27T04:27:56.266Z,99.90
2018-04-27T04:30:24.516Z,99.90
2018-04-27T04:32:52.697Z,99.90
2018-04-27T04:35:20.976Z,99.90
2018-04-27T04:38:02.181Z,99.90
2018-04-27T04:40:30.424Z,99.90
2018-04-27T04:42:59.433Z,99.90
2018-04-27T04:45:27.637Z,99.90
2018-04-27T04:47:55.818Z,99.90
2018-04-27T04:50:24.895Z,99.90
2018-04-27T04:52:53.097Z,99.90
2018-04-27T04:55:22.102Z,99.90
2018-04-27T04:58:01.623Z,99.90
2018-04-27T05:00:30.666Z,99.90
2018-04-27T05:02:58.945Z,99.90
2018-04-27T05:05:27.869Z,99.90
2018-04-27T05:07:56.072Z,99.90
2018-04-27T05:10:24.209Z,99.90
2018-04-27T05:12:52.447Z,99.90
2018-04-27T05:15:20.593Z,99.90
2018-04-27T05:20:18.161Z,99.90
2018-04-27T05:22:46.358Z,99.90
2018-04-27T05:25:14.512Z,99.90
2018-04-27T05:27:44.389Z,99.90
2018-04-27T05:30:12.558Z,99.90
2018-04-27T05:32:40.754Z,99.90
2018-04-27T05:35:09.833Z,99.90
2018-04-27T05:37:38.020Z,99.90
2018-04-27T05:40:07.262Z,99.90
2018-04-27T05:42:35.425Z,99.90
2018-04-27T05:45:03.577Z,99.90
2018-04-27T05:47:45.449Z,99.90
2018-04-27T05:50:14.477Z,99.90
2018-04-27T05:52:42.713Z,99.90
2018-04-27T05:55:10.869Z,99.90
2018-04-27T05:57:44.404Z,99.90
2018-04-27T06:00:13.385Z,99.90
2018-04-27T06:02:41.608Z,99.90
2018-04-27T06:05:09.809Z,99.90
2018-04-27T06:07:41.463Z,99.90
2018-04-27T06:10:09.712Z,99.90
2018-04-27T06:12:38.645Z,99.90
2018-04-27T06:15:06.905Z,99.90
2018-04-27T06:17:35.169Z,99.90
2018-04-27T06:20:03.357Z,99.90
2018-04-27T06:22:31.510Z,99.90
2018-04-27T06:24:59.789Z,99.90
2018-04-27T06:27:29.982Z,99.90
2018-04-27T06:30:00.933Z,99.90
2018-04-27T06:32:29.085Z,99.90
2018-04-27T06:34:58.421Z,99.90
2018-04-27T06:37:26.616Z,99.90
2018-04-27T06:39:54.832Z,99.90
2018-04-27T06:42:23.756Z,99.90
2018-04-27T06:44:51.944Z,99.90
2018-04-27T06:47:20.092Z,99.90
2018-04-27T06:49:55.841Z,99.40
2018-04-27T06:52:23.976Z,97.40
2018-04-27T06:54:52.120Z,99.90
2018-04-27T06:57:24.374Z,95.60
2018-04-27T06:59:52.521Z,96.80
2018-04-27T07:02:20.673Z,93.60
2018-04-27T07:04:48.828Z,93.90
2018-04-27T07:07:46.302Z,93.70
2018-04-27T07:10:15.237Z,92.20
2018-04-27T07:12:43.368Z,92.60
2018-04-27T07:15:11.516Z,92.90
2018-04-27T07:17:39.766Z,92.40
2018-04-27T07:20:08.657Z,92.10
2018-04-27T07:22:36.860Z,92.10
2018-04-27T07:25:05.077Z,91.20
2018-04-27T07:27:34.262Z,91.60
2018-04-27T07:30:03.230Z,91.30
2018-04-27T07:32:31.444Z,91.40
2018-04-27T07:34:59.616Z,90.30
2018-04-27T07:37:35.979Z,91.20
2018-04-27T07:40:04.133Z,92.00
2018-04-27T07:42:33.067Z,99.70
2018-04-27T07:45:08.760Z,99.70
2018-04-27T07:47:40.334Z,91.80
2018-04-27T07:50:09.353Z,90.40
2018-04-27T07:52:37.553Z,90.30
2018-04-27T07:55:05.759Z,90.70
2018-04-27T07:57:35.150Z,88.40
2018-04-27T08:00:10.675Z,89.10
2018-04-27T08:02:38.835Z,89.30
2018-04-27T08:05:06.989Z,90.50
2018-04-27T08:07:35.149Z,90.00
2018-04-27T08:10:04.052Z,85.10
2018-04-27T08:12:40.098Z,85.10
2018-04-27T08:15:09.041Z,84.90
2018-04-27T08:17:38.227Z,84.80
2018-04-27T08:20:13.838Z,82.10
2018-04-27T08:22:42.759Z,83.60
2018-04-27T08:25:10.896Z,83.50
2018-04-27T08:27:43.341Z,77.60
2018-04-27T08:30:11.549Z,77.00
2018-04-27T08:32:39.650Z,80.60
2018-04-27T08:35:07.809Z,75.20
2018-04-27T08:37:49.188Z,79.50
2018-04-27T08:40:17.352Z,77.00
2018-04-27T08:42:46.272Z,73.00
2018-04-27T08:45:14.476Z,73.00
2018-04-27T08:47:47.036Z,73.90
2018-04-27T08:50:15.200Z,73.10
2018-04-27T08:52:43.346Z,72.90
2018-04-27T08:55:18.664Z,71.60
2018-04-27T08:58:11.027Z,67.40
2018-04-27T09:00:39.176Z,67.50
2018-04-27T09:03:08.087Z,65.20
2018-04-27T09:05:37.017Z,59.20
2018-04-27T09:09:00.275Z,59.20
2018-04-27T09:11:28.413Z,58.80
2018-04-27T09:13:57.404Z,54.40
2018-04-27T09:16:26.304Z,50.60
2018-04-27T09:18:54.444Z,50.50
2018-04-27T09:21:22.596Z,55.50
2018-04-27T09:23:50.748Z,57.50
2018-04-27T09:26:18.929Z,53.40
2018-04-27T09:28:51.509Z,51.40
2018-04-27T09:31:19.775Z,53.30
2018-04-27T09:33:47.948Z,55.20
2018-04-27T09:36:16.263Z,54.50
2018-04-27T09:39:19.946Z,55.20
2018-04-27T09:41:48.209Z,49.10
2018-04-27T09:44:16.380Z,48.40
2018-04-27T09:46:44.600Z,46.20
2018-04-27T09:49:12.787Z,49.00
2018-04-27T09:51:41.793Z,49.40
2018-04-27T09:54:10.049Z,49.40
2018-04-27T09:56:39.042Z,46.70
2018-04-27T09:59:08.144Z,48.60
2018-04-27T10:01:37.280Z,47.60
2018-04-27T10:04:05.427Z,47.50
2018-04-27T10:06:33.651Z,47.50
2018-04-27T10:09:01.853Z,44.10
2018-04-27T10:11:30.886Z,45.50
2018-04-27T10:13:59.065Z,45.30
2018-04-27T10:16:27.316Z,45.30
2018-04-27T10:18:55.517Z,45.20
2018-04-27T10:21:23.788Z,43.30
2018-04-27T10:23:52.009Z,41.40
2018-04-27T10:26:29.544Z,41.70
2018-04-27T10:28:57.701Z,43.30
2018-04-27T10:31:26.612Z,41.90
2018-04-27T10:33:54.777Z,41.90
2018-04-27T10:36:22.935Z,41.20
2018-04-27T10:38:57.172Z,39.70
2018-04-27T10:41:25.304Z,39.60
2018-04-27T10:43:53.466Z,41.70
2018-04-27T10:46:21.623Z,40.60
2018-04-27T10:48:51.773Z,41.60
2018-04-27T10:51:19.908Z,42.70
2018-04-27T10:53:48.064Z,41.80
2018-04-27T10:56:16.200Z,42.60
2018-04-27T10:58:45.119Z,40.40
2018-04-27T11:01:13.259Z,40.40
2018-04-27T11:03:42.187Z,39.60
2018-04-27T11:06:10.322Z,39.60
2018-04-27T11:08:55.901Z,40.50
2018-04-27T11:11:32.746Z,39.80
2018-04-27T11:14:00.916Z,39.90
2018-04-27T11:16:29.056Z,35.30
2018-04-27T11:19:12.331Z,39.00
2018-04-27T11:21:40.476Z,37.00
2018-04-27T11:24:15.812Z,37.20
2018-04-27T11:26:44.907Z,36.90
2018-04-27T11:29:13.077Z,36.80
2018-04-27T11:31:41.240Z,36.80
2018-04-27T11:34:09.449Z,41.90
2018-04-27T11:36:37.589Z,37.10
2018-04-27T11:39:05.809Z,36.40
2018-04-27T11:41:34.003Z,37.90
2018-04-27T11:44:02.151Z,35.10
2018-04-27T11:46:30.292Z,33.90
2018-04-27T11:49:06.880Z,38.10
2018-04-27T11:51:35.016Z,40.40
2018-04-27T11:54:11.337Z,33.50
2018-04-27T11:56:51.456Z,33.30
2018-04-27T11:59:26.926Z,35.30
2018-04-27T12:01:55.078Z,36.30
2018-04-27T12:04:23.356Z,34.90
2018-04-27T12:06:51.492Z,33.30
2018-04-27T12:09:37.077Z,33.40
2018-04-27T12:12:05.313Z,33.30
2018-04-27T12:14:33.568Z,30.40
2018-04-27T12:17:08.934Z,31.80
2018-04-27T12:19:37.280Z,30.80
2018-04-27T12:22:06.249Z,32.70
2018-04-27T12:24:35.898Z,32.60
2018-04-27T12:27:07.350Z,31.00
2018-04-27T12:29:35.547Z,32.50
2018-04-27T12:32:03.796Z,31.40
2018-04-27T12:34:32.037Z,35.40
2018-04-27T12:37:01.249Z,31.40
2018-04-27T12:39:29.403Z,31.40
2018-04-27T12:41:57.729Z,31.80
2018-04-27T12:44:33.476Z,32.00
2018-04-27T12:47:17.385Z,29.60
2018-04-27T12:49:53.089Z,29.50
2018-04-27T12:52:21.249Z,32.40
2018-04-27T12:54:56.570Z,31.40
2018-04-27T12:57:25.676Z,32.60
2018-04-27T12:59:53.933Z,34.80
2018-04-27T13:02:22.159Z,30.40
2018-04-27T13:04:51.075Z,31.60
2018-04-27T13:07:20.253Z,31.70
2018-04-27T13:09:49.284Z,31.50
2018-04-27T13:12:17.456Z,31.40
2018-04-27T13:14:45.801Z,30.10
2018-04-27T13:17:18.741Z,32.60
2018-04-27T13:19:46.925Z,32.70
2018-04-27T13:22:15.104Z,29.90
2018-04-27T13:24:43.262Z,28.60
2018-04-27T13:27:13.409Z,28.30
2018-04-27T13:29:41.631Z,27.60
2018-04-27T13:32:09.829Z,28.70
2018-04-27T13:34:38.053Z,29.50
2018-04-27T13:37:06.265Z,30.90
2018-04-27T13:39:34.502Z,30.30
2018-04-27T13:42:02.685Z,29.60
2018-04-27T13:44:30.890Z,29.40
2018-04-27T13:47:06.129Z,28.60
2018-04-27T13:49:34.283Z,27.80
2018-04-27T13:52:02.425Z,28.40
2018-04-27T13:54:31.372Z,28.80
2018-04-27T13:57:14.631Z,28.80
2018-04-27T13:59:42.799Z,27.90
2018-04-27T14:02:10.956Z,30.30
2018-04-27T14:04:39.112Z,29.60
2018-04-27T14:07:08.208Z,28.00
2018-04-27T14:09:36.360Z,28.10
2018-04-27T14:12:04.503Z,27.90
2018-04-27T14:14:40.850Z,29.20
2018-04-27T14:17:20.520Z,29.00
2018-04-27T14:19:56.892Z,27.70
2018-04-27T14:22:24.985Z,27.70
2018-04-27T14:24:53.148Z,28.10
2018-04-27T14:27:22.261Z,26.40
2018-04-27T14:29:50.434Z,27.50
2018-04-27T14:32:18.592Z,27.30
2018-04-27T14:34:46.737Z,26.30
2018-04-27T14:37:23.060Z,26.60
2018-04-27T14:39:51.208Z,28.40
2018-04-27T14:42:19.372Z,26.50
2018-04-27T14:44:47.520Z,26.70
2018-04-27T14:47:16.445Z,26.30
2018-04-27T14:49:44.588Z,26.30
2018-04-27T14:52:13.514Z,27.40
2018-04-27T14:54:41.654Z,27.30
2018-04-27T14:57:22.692Z,28.10
2018-04-27T14:59:58.557Z,28.00
2018-04-27T15:02:26.712Z,29.70
2018-04-27T15:04:54.908Z,27.60
2018-04-27T15:07:24.028Z,26.80
2018-04-27T15:09:52.932Z,27.00
2018-04-27T15:12:21.087Z,27.00
2018-04-27T15:14:50.009Z,28.00
2018-04-27T15:17:21.849Z,27.90
2018-04-27T15:19:50.088Z,28.10
2018-04-27T15:22:18.313Z,28.30
2018-04-27T15:24:46.516Z,28.20
2018-04-27T15:27:19.396Z,28.50
2018-04-27T15:29:47.555Z,29.70
2018-04-27T15:32:15.696Z,30.70
2018-04-27T15:34:44.641Z,30.60
2018-04-27T15:37:12.797Z,30.70
2018-04-27T15:39:40.966Z,31.20
2018-04-27T15:42:17.035Z,30.90
2018-04-27T15:44:45.184Z,31.50
2018-04-27T15:47:22.420Z,30.60
2018-04-27T15:52:18.713Z,31.90
2018-04-27T15:54:46.873Z,31.50
2018-04-27T15:57:15.032Z,32.10
2018-04-27T15:59:43.964Z,33.20
2018-04-27T16:02:12.095Z,33.20
2018-04-27T16:04:47.980Z,33.40
2018-04-27T16:07:25.604Z,34.00
2018-04-27T16:09:53.761Z,33.80
2018-04-27T16:12:21.896Z,34.30
2018-04-27T16:14:50.947Z,35.60
2018-04-27T16:19:58.311Z,36.60
2018-04-27T16:22:26.448Z,37.20
2018-04-27T16:24:54.602Z,37.20
2018-04-27T16:27:33.252Z,37.50
2018-04-27T16:30:01.395Z,39.00
2018-04-27T16:32:37.036Z,39.60
2018-04-27T16:35:05.200Z,40.00
2018-04-27T16:37:33.343Z,40.60
2018-04-27T16:40:09.701Z,40.90
2018-04-27T16:42:38.612Z,42.00
2018-04-27T16:45:06.752Z,42.00
2018-04-27T16:47:35.680Z,42.40
2018-04-27T16:50:03.812Z,42.30
2018-04-27T16:52:32.054Z,42.20
2018-04-27T16:55:00.227Z,43.90
2018-04-27T16:57:43.371Z,44.40
2018-04-27T17:02:39.660Z,44.70
2018-04-27T17:05:07.800Z,44.20
2018-04-27T17:07:37.892Z,46.00
2018-04-27T17:10:14.187Z,46.50
2018-04-27T17:12:49.934Z,46.10
2018-04-27T17:15:18.072Z,47.20
2018-04-27T17:17:54.154Z,47.90
2018-04-27T17:20:22.300Z,48.50
2018-04-27T17:22:57.942Z,47.10
2018-04-27T17:25:26.096Z,46.80
2018-04-27T17:28:11.168Z,48.30
2018-04-27T17:30:39.342Z,48.70
2018-04-27T17:33:14.799Z,48.20
2018-04-27T17:35:50.273Z,48.80
2018-04-27T17:38:19.356Z,50.50
2018-04-27T17:40:47.515Z,51.20
2018-04-27T17:43:15.676Z,50.70
2018-04-27T17:45:43.850Z,52.50
2018-04-27T17:48:13.039Z,52.10
2018-04-27T17:50:41.266Z,52.70
2018-04-27T17:53:09.533Z,52.70
2018-04-27T17:55:37.715Z,53.90
2018-04-27T17:58:06.883Z,53.40
2018-04-27T18:00:35.137Z,54.10
2018-04-27T18:03:03.304Z,55.60
2018-04-27T18:05:31.508Z,57.30
2018-04-27T18:08:00.462Z,68.70
2018-04-27T18:10:29.473Z,74.70
2018-04-27T18:12:57.667Z,74.70
2018-04-27T18:15:25.885Z,78.30
2018-04-27T18:17:58.410Z,80.30
2018-04-27T18:20:33.673Z,80.20
2018-04-27T18:23:01.826Z,82.00
2018-04-27T18:25:30.126Z,82.70
2018-04-27T18:27:59.096Z,81.10
2018-04-27T18:30:27.296Z,82.10
2018-04-27T18:32:55.457Z,82.50
2018-04-27T18:35:23.617Z,81.00
2018-04-27T18:38:13.191Z,81.70
2018-04-27T18:40:41.376Z,82.00
2018-04-27T18:43:16.916Z,84.40
2018-04-27T18:48:18.528Z,85.50
2018-04-27T18:50:46.711Z,87.20
2018-04-27T18:55:43.830Z,89.30
2018-04-27T18:58:13.789Z,90.10
2018-04-27T19:00:42.768Z,91.10
2018-04-27T19:03:10.960Z,91.00
2018-04-27T19:05:39.185Z,91.40
2018-04-27T19:08:08.284Z,91.50
2018-04-27T19:10:40.008Z,92.10
2018-04-27T19:13:19.643Z,92.40
2018-04-27T19:15:47.876Z,92.40
2018-04-27T19:18:19.881Z,92.90
2018-04-27T19:20:48.821Z,93.20
2018-04-27T19:25:49.124Z,93.40
2018-04-27T19:28:20.972Z,93.90
2018-04-27T19:30:49.912Z,93.80
2018-04-27T19:33:18.140Z,93.80
2018-04-27T19:35:46.312Z,94.10
2018-04-27T19:38:21.790Z,94.60
2018-04-27T19:40:49.978Z,95.00
2018-04-27T19:43:18.201Z,95.00
2018-04-27T19:45:54.708Z,95.60
2018-04-27T19:48:23.838Z,95.60
2018-04-27T19:53:20.885Z,95.70
2018-04-27T19:55:49.065Z,96.00
2018-04-27T20:00:46.346Z,96.10
2018-04-27T20:05:44.590Z,96.30
2018-04-27T20:08:16.033Z,96.80
2018-04-27T20:10:45.256Z,96.70
2018-04-27T20:15:46.638Z,97.40
2018-04-27T20:18:30.803Z,97.40
2018-04-27T20:21:00.593Z,97.40
2018-04-27T20:26:15.160Z,97.60
2018-04-27T20:28:44.269Z,97.50
2018-04-27T20:31:12.472Z,97.80
2018-04-27T20:33:41.487Z,98.30
2018-04-27T20:36:09.709Z,98.20
2018-04-27T20:38:55.672Z,98.50
2018-04-27T20:43:54.619Z,98.60
2018-04-27T20:46:22.849Z,98.90
2018-04-27T20:48:52.916Z,98.80
2018-04-27T20:51:28.602Z,98.90
2018-04-27T20:56:29.538Z,99.40
2018-04-27T20:58:58.472Z,99.20
2018-04-27T21:01:34.325Z,99.10
2018-04-27T21:06:31.390Z,99.80
2018-04-27T21:08:59.557Z,99.80
2018-04-27T21:11:32.794Z,99.30
2018-04-27T21:14:01.727Z,99.90
2018-04-27T21:16:29.941Z,99.90
2018-04-27T21:19:08.911Z,99.90
2018-04-27T21:21:37.889Z,99.90
2018-04-27T21:24:06.861Z,99.90
2018-04-27T21:26:44.275Z,99.90
2018-04-27T21:29:19.436Z,99.90
2018-04-27T21:34:15.896Z,99.90
2018-04-27T21:36:50.441Z,99.90
2018-04-27T21:39:21.443Z,99.90
2018-04-27T21:45:02.445Z,99.90
2018-04-27T21:47:59.383Z,99.90
2018-04-27T21:50:27.587Z,99.90
2018-04-27T21:52:55.817Z,99.90
2018-04-27T21:55:24.817Z,99.90
2018-04-27T21:57:58.428Z,99.90
2018-04-27T22:00:28.268Z,99.90
2018-04-27T22:03:06.994Z,99.90
2018-04-27T22:09:08.537Z,99.90
2018-04-27T22:11:54.515Z,99.90
2018-04-27T22:14:29.929Z,99.90
2018-04-27T22:17:15.581Z,99.90
2018-04-27T22:19:44.551Z,99.90
2018-04-27T22:22:21.769Z,99.90
2018-04-27T22:27:51.710Z,99.90
2018-04-27T22:30:37.165Z,99.90
2018-04-27T22:36:39.692Z,99.90
2018-04-27T22:42:48.009Z,99.90
2018-04-27T22:45:19.049Z,99.90
2018-04-27T22:48:29.755Z,99.90
2018-04-27T22:51:01.873Z,99.90
2018-04-27T22:53:43.399Z,99.90
2018-04-27T22:59:21.057Z,99.90
2018-04-27T23:01:49.303Z,99.90
2018-04-27T23:04:19.099Z,99.90
2018-04-27T23:06:47.327Z,99.90
2018-04-27T23:09:15.500Z,99.90
2018-04-27T23:11:43.774Z,99.90
2018-04-27T23:14:14.987Z,99.90
2018-04-27T23:16:48.744Z,99.90
2018-04-27T23:19:18.622Z,99.90
2018-04-27T23:21:58.425Z,99.90
2018-04-27T23:24:26.635Z,99.90
2018-04-27T23:27:01.586Z,99.90
2018-04-27T23:29:29.822Z,99.90
2018-04-27T23:32:05.570Z,99.90
2018-04-27T23:34:42.314Z,99.90
2018-04-27T23:37:11.463Z,99.90
2018-04-27T23:39:40.509Z,99.90
2018-04-27T23:42:08.672Z,99.90
2018-04-27T23:44:36.821Z,99.90
2018-04-27T23:47:05.049Z,99.90
2018-04-27T23:49:33.242Z,99.90
2018-04-27T23:52:02.189Z,99.90
2018-04-27T23:54:30.324Z,99.90
2018-04-27T23:57:04.678Z,99.90
2018-04-27T23:59:43.635Z,99.90
